sensor_id;sensor_type;location;lat;lon;timestamp;temperature;humidity
40323;DHT22;26030;51.164;17.100;2023-03-21T00:02:25;22.00;62.30
40323;DHT22;26030;51.164;17.100;2023-03-21T00:07:30;22.00;62.50
40323;DHT22;26030;51.164;17.100;2023-03-21T00:12:34;22.00;62.80
40323;DHT22;26030;51.164;17.100;2023-03-21T00:17:40;22.00;62.80
40323;DHT22;26030;51.164;17.100;2023-03-21T00:22:47;22.00;62.80
40323;DHT22;26030;51.164;17.100;2023-03-21T00:27:51;22.10;62.90
40323;DHT22;26030;51.164;17.100;2023-03-21T00:33:10;22.20;62.80
40323;DHT22;26030;51.164;17.100;2023-03-21T00:38:36;22.10;62.20
40323;DHT22;26030;51.164;17.100;2023-03-21T00:43:42;22.10;62.20
40323;DHT22;26030;51.164;17.100;2023-03-21T00:48:46;22.10;61.90
40323;DHT22;26030;51.164;17.100;2023-03-21T00:53:51;22.00;61.70
40323;DHT22;26030;51.164;17.100;2023-03-21T00:58:56;22.00;61.80
40323;DHT22;26030;51.164;17.100;2023-03-21T01:04:01;21.90;61.50
40323;DHT22;26030;51.164;17.100;2023-03-21T01:09:14;21.90;61.60
40323;DHT22;26030;51.164;17.100;2023-03-21T01:14:21;21.80;61.40
40323;DHT22;26030;51.164;17.100;2023-03-21T01:19:26;21.80;61.10
40323;DHT22;26030;51.164;17.100;2023-03-21T01:24:51;21.80;61.80
40323;DHT22;26030;51.164;17.100;2023-03-21T01:30:05;21.80;61.10
40323;DHT22;26030;51.164;17.100;2023-03-21T01:35:21;21.80;61.30
40323;DHT22;26030;51.164;17.100;2023-03-21T01:40:27;21.80;60.60
40323;DHT22;26030;51.164;17.100;2023-03-21T01:52:02;21.70;61.00
40323;DHT22;26030;51.164;17.100;2023-03-21T01:58:03;21.70;60.60
40323;DHT22;26030;51.164;17.100;2023-03-21T02:03:15;21.90;62.10
40323;DHT22;26030;51.164;17.100;2023-03-21T02:08:49;22.30;60.50
40323;DHT22;26030;51.164;17.100;2023-03-21T02:13:55;22.70;58.80
40323;DHT22;26030;51.164;17.100;2023-03-21T02:19:24;23.00;58.10
40323;DHT22;26030;51.164;17.100;2023-03-21T02:47:01;23.30;56.70
40323;DHT22;26030;51.164;17.100;2023-03-21T02:52:13;23.20;57.60
40323;DHT22;26030;51.164;17.100;2023-03-21T02:57:41;23.20;57.10
40323;DHT22;26030;51.164;17.100;2023-03-21T03:02:48;23.30;57.60
40323;DHT22;26030;51.164;17.100;2023-03-21T03:14:08;23.40;56.90
40323;DHT22;26030;51.164;17.100;2023-03-21T03:20:01;23.30;57.10
40323;DHT22;26030;51.164;17.100;2023-03-21T03:25:34;23.30;57.10
40323;DHT22;26030;51.164;17.100;2023-03-21T03:30:48;23.10;57.90
40323;DHT22;26030;51.164;17.100;2023-03-21T03:36:15;23.00;57.50
40323;DHT22;26030;51.164;17.100;2023-03-21T03:41:40;23.10;57.30
40323;DHT22;26030;51.164;17.100;2023-03-21T03:53:18;23.10;57.50
40323;DHT22;26030;51.164;17.100;2023-03-21T03:58:33;23.00;58.30
40323;DHT22;26030;51.164;17.100;2023-03-21T04:03:50;22.90;58.00
40323;DHT22;26030;51.164;17.100;2023-03-21T04:09:12;22.80;59.20
40323;DHT22;26030;51.164;17.100;2023-03-21T04:14:25;22.60;59.00
40323;DHT22;26030;51.164;17.100;2023-03-21T04:19:41;22.60;58.60
40323;DHT22;26030;51.164;17.100;2023-03-21T04:24:45;22.50;58.60
40323;DHT22;26030;51.164;17.100;2023-03-21T04:29:49;22.50;58.50
40323;DHT22;26030;51.164;17.100;2023-03-21T04:35:18;22.50;58.60
40323;DHT22;26030;51.164;17.100;2023-03-21T04:40:24;22.50;58.50
40323;DHT22;26030;51.164;17.100;2023-03-21T04:45:30;22.40;58.80
40323;DHT22;26030;51.164;17.100;2023-03-21T04:50:35;22.50;58.70
40323;DHT22;26030;51.164;17.100;2023-03-21T04:55:40;22.40;58.30
40323;DHT22;26030;51.164;17.100;2023-03-21T05:00:44;22.40;58.40
40323;DHT22;26030;51.164;17.100;2023-03-21T05:05:49;22.30;58.60
40323;DHT22;26030;51.164;17.100;2023-03-21T05:10:54;22.20;58.90
40323;DHT22;26030;51.164;17.100;2023-03-21T05:16:00;22.20;59.00
40323;DHT22;26030;51.164;17.100;2023-03-21T05:21:04;22.20;58.90
40323;DHT22;26030;51.164;17.100;2023-03-21T05:26:14;22.10;58.90
40323;DHT22;26030;51.164;17.100;2023-03-21T05:31:26;22.10;59.10
40323;DHT22;26030;51.164;17.100;2023-03-21T05:36:39;22.10;59.00
40323;DHT22;26030;51.164;17.100;2023-03-21T05:41:44;22.00;59.00
40323;DHT22;26030;51.164;17.100;2023-03-21T05:46:49;22.00;59.10
40323;DHT22;26030;51.164;17.100;2023-03-21T05:51:54;22.00;59.30
40323;DHT22;26030;51.164;17.100;2023-03-21T05:56:59;22.00;59.20
40323;DHT22;26030;51.164;17.100;2023-03-21T06:02:20;22.00;59.30
40323;DHT22;26030;51.164;17.100;2023-03-21T06:07:25;21.90;59.10
40323;DHT22;26030;51.164;17.100;2023-03-21T06:12:30;21.90;59.20
40323;DHT22;26030;51.164;17.100;2023-03-21T06:17:58;21.90;59.30
40323;DHT22;26030;51.164;17.100;2023-03-21T06:23:02;21.90;59.20
40323;DHT22;26030;51.164;17.100;2023-03-21T06:28:07;21.90;59.20
40323;DHT22;26030;51.164;17.100;2023-03-21T06:33:14;22.10;59.30
40323;DHT22;26030;51.164;17.100;2023-03-21T06:38:19;22.40;58.60
40323;DHT22;26030;51.164;17.100;2023-03-21T06:43:24;22.50;58.30
40323;DHT22;26030;51.164;17.100;2023-03-21T06:48:28;22.60;58.30
40323;DHT22;26030;51.164;17.100;2023-03-21T06:53:33;22.80;57.60
40323;DHT22;26030;51.164;17.100;2023-03-21T06:58:56;22.90;57.70
40323;DHT22;26030;51.164;17.100;2023-03-21T07:04:19;23.00;57.40
40323;DHT22;26030;51.164;17.100;2023-03-21T07:09:23;23.10;57.40
40323;DHT22;26030;51.164;17.100;2023-03-21T07:14:33;23.20;57.40
40323;DHT22;26030;51.164;17.100;2023-03-21T07:19:37;23.20;58.20
40323;DHT22;26030;51.164;17.100;2023-03-21T07:24:41;23.20;57.90
40323;DHT22;26030;51.164;17.100;2023-03-21T07:29:47;23.20;57.70
40323;DHT22;26030;51.164;17.100;2023-03-21T07:34:52;23.30;57.70
40323;DHT22;26030;51.164;17.100;2023-03-21T07:39:56;23.30;58.00
40323;DHT22;26030;51.164;17.100;2023-03-21T07:45:01;23.30;57.70
40323;DHT22;26030;51.164;17.100;2023-03-21T07:50:09;23.20;58.10
40323;DHT22;26030;51.164;17.100;2023-03-21T07:55:13;23.20;58.40
40323;DHT22;26030;51.164;17.100;2023-03-21T08:00:18;23.30;58.70
40323;DHT22;26030;51.164;17.100;2023-03-21T08:05:27;23.10;58.40
40323;DHT22;26030;51.164;17.100;2023-03-21T08:10:37;23.10;58.80
40323;DHT22;26030;51.164;17.100;2023-03-21T08:15:41;22.90;58.20
40323;DHT22;26030;51.164;17.100;2023-03-21T08:20:49;23.00;58.30
40323;DHT22;26030;51.164;17.100;2023-03-21T08:25:55;22.80;58.20
40323;DHT22;26030;51.164;17.100;2023-03-21T08:30:59;22.80;58.80
40323;DHT22;26030;51.164;17.100;2023-03-21T08:36:04;22.80;58.30
40323;DHT22;26030;51.164;17.100;2023-03-21T08:41:09;22.90;58.20
40323;DHT22;26030;51.164;17.100;2023-03-21T08:46:14;22.90;58.90
40323;DHT22;26030;51.164;17.100;2023-03-21T08:51:18;22.80;58.30
40323;DHT22;26030;51.164;17.100;2023-03-21T08:56:23;22.70;58.30
40323;DHT22;26030;51.164;17.100;2023-03-21T09:01:27;22.70;58.60
40323;DHT22;26030;51.164;17.100;2023-03-21T09:06:31;22.70;58.50
40323;DHT22;26030;51.164;17.100;2023-03-21T09:11:36;22.90;58.30
40323;DHT22;26030;51.164;17.100;2023-03-21T09:16:40;22.70;58.80
40323;DHT22;26030;51.164;17.100;2023-03-21T09:21:44;22.70;58.30
40323;DHT22;26030;51.164;17.100;2023-03-21T09:26:49;22.70;58.30
40323;DHT22;26030;51.164;17.100;2023-03-21T09:31:54;22.70;59.20
40323;DHT22;26030;51.164;17.100;2023-03-21T09:36:58;22.70;58.90
40323;DHT22;26030;51.164;17.100;2023-03-21T09:42:46;22.80;61.00
40323;DHT22;26030;51.164;17.100;2023-03-21T09:47:40;22.70;61.00
40323;DHT22;26030;51.164;17.100;2023-03-21T10:03:22;22.70;60.30
40323;DHT22;26030;51.164;17.100;2023-03-21T10:08:33;22.60;60.30
40323;DHT22;26030;51.164;17.100;2023-03-21T10:14:43;22.60;59.90
40323;DHT22;26030;51.164;17.100;2023-03-21T10:19:19;22.60;59.90
40323;DHT22;26030;51.164;17.100;2023-03-21T10:24:24;22.60;59.80
40323;DHT22;26030;51.164;17.100;2023-03-21T10:29:31;22.60;59.70
40323;DHT22;26030;51.164;17.100;2023-03-21T10:34:45;22.60;59.60
40323;DHT22;26030;51.164;17.100;2023-03-21T10:39:53;22.60;59.50
40323;DHT22;26030;51.164;17.100;2023-03-21T10:44:58;22.60;59.60
40323;DHT22;26030;51.164;17.100;2023-03-21T10:50:06;22.60;59.30
40323;DHT22;26030;51.164;17.100;2023-03-21T11:00:27;22.50;59.60
40323;DHT22;26030;51.164;17.100;2023-03-21T11:11:02;22.50;59.00
40323;DHT22;26030;51.164;17.100;2023-03-21T11:16:20;22.50;59.00
40323;DHT22;26030;51.164;17.100;2023-03-21T11:21:26;22.50;59.30
40323;DHT22;26030;51.164;17.100;2023-03-21T11:26:37;22.40;58.90
40323;DHT22;26030;51.164;17.100;2023-03-21T11:31:45;22.40;58.80
40323;DHT22;26030;51.164;17.100;2023-03-21T11:36:50;22.40;58.70
40323;DHT22;26030;51.164;17.100;2023-03-21T11:41:54;22.40;59.30
40323;DHT22;26030;51.164;17.100;2023-03-21T11:46:58;22.30;59.00
40323;DHT22;26030;51.164;17.100;2023-03-21T12:14:01;22.30;58.50
40323;DHT22;26030;51.164;17.100;2023-03-21T12:19:32;22.30;58.40
40323;DHT22;26030;51.164;17.100;2023-03-21T12:45:51;22.20;58.40
40323;DHT22;26030;51.164;17.100;2023-03-21T12:51:00;22.20;58.80
40323;DHT22;26030;51.164;17.100;2023-03-21T12:56:07;22.30;58.90
40323;DHT22;26030;51.164;17.100;2023-03-21T13:01:15;22.30;59.00
40323;DHT22;26030;51.164;17.100;2023-03-21T13:06:24;22.30;58.90
40323;DHT22;26030;51.164;17.100;2023-03-21T13:11:31;22.40;58.80
40323;DHT22;26030;51.164;17.100;2023-03-21T13:27:12;22.40;59.20
40323;DHT22;26030;51.164;17.100;2023-03-21T13:32:38;22.40;58.80
40323;DHT22;26030;51.164;17.100;2023-03-21T13:37:49;22.40;58.60
40323;DHT22;26030;51.164;17.100;2023-03-21T13:42:58;22.40;58.60
40323;DHT22;26030;51.164;17.100;2023-03-21T13:48:03;22.50;58.40
40323;DHT22;26030;51.164;17.100;2023-03-21T13:58:22;22.50;58.40
40323;DHT22;26030;51.164;17.100;2023-03-21T14:03:27;22.50;58.50
40323;DHT22;26030;51.164;17.100;2023-03-21T14:08:36;22.50;58.30
40323;DHT22;26030;51.164;17.100;2023-03-21T14:13:44;22.50;58.40
40323;DHT22;26030;51.164;17.100;2023-03-21T14:19:01;22.50;58.40
40323;DHT22;26030;51.164;17.100;2023-03-21T14:24:11;22.50;58.30
40323;DHT22;26030;51.164;17.100;2023-03-21T14:29:21;22.50;58.20
40323;DHT22;26030;51.164;17.100;2023-03-21T14:34:30;22.50;58.30
40323;DHT22;26030;51.164;17.100;2023-03-21T14:39:37;22.40;58.70
40323;DHT22;26030;51.164;17.100;2023-03-21T14:44:42;22.40;58.40
40323;DHT22;26030;51.164;17.100;2023-03-21T14:49:59;22.30;58.60
40323;DHT22;26030;51.164;17.100;2023-03-21T14:55:04;22.40;58.50
40323;DHT22;26030;51.164;17.100;2023-03-21T15:00:23;22.40;58.10
40323;DHT22;26030;51.164;17.100;2023-03-21T15:05:31;22.50;57.50
40323;DHT22;26030;51.164;17.100;2023-03-21T15:10:36;22.50;58.00
40323;DHT22;26030;51.164;17.100;2023-03-21T15:15:41;22.40;58.60
40323;DHT22;26030;51.164;17.100;2023-03-21T15:20:47;22.40;57.90
40323;DHT22;26030;51.164;17.100;2023-03-21T15:25:53;22.30;58.70
40323;DHT22;26030;51.164;17.100;2023-03-21T15:30:58;22.30;58.80
40323;DHT22;26030;51.164;17.100;2023-03-21T15:36:07;22.30;60.00
40323;DHT22;26030;51.164;17.100;2023-03-21T15:46:32;22.20;59.50
40323;DHT22;26030;51.164;17.100;2023-03-21T15:51:51;22.20;58.60
40323;DHT22;26030;51.164;17.100;2023-03-21T15:57:00;22.30;59.80
40323;DHT22;26030;51.164;17.100;2023-03-21T16:02:15;22.30;59.90
40323;DHT22;26030;51.164;17.100;2023-03-21T16:07:22;22.40;58.80
40323;DHT22;26030;51.164;17.100;2023-03-21T16:12:27;22.40;59.40
40323;DHT22;26030;51.164;17.100;2023-03-21T16:17:33;22.40;59.10
40323;DHT22;26030;51.164;17.100;2023-03-21T16:22:41;22.50;59.10
40323;DHT22;26030;51.164;17.100;2023-03-21T16:27:46;22.50;59.70
40323;DHT22;26030;51.164;17.100;2023-03-21T16:32:51;22.50;59.80
40323;DHT22;26030;51.164;17.100;2023-03-21T16:37:55;22.50;60.90
40323;DHT22;26030;51.164;17.100;2023-03-21T16:42:59;22.50;61.30
40323;DHT22;26030;51.164;17.100;2023-03-21T16:48:04;22.50;62.50
40323;DHT22;26030;51.164;17.100;2023-03-21T16:53:08;22.40;62.40
40323;DHT22;26030;51.164;17.100;2023-03-21T16:58:13;22.40;62.20
40323;DHT22;26030;51.164;17.100;2023-03-21T17:03:18;22.40;62.90
40323;DHT22;26030;51.164;17.100;2023-03-21T17:08:24;22.50;62.00
40323;DHT22;26030;51.164;17.100;2023-03-21T17:13:31;22.60;62.20
40323;DHT22;26030;51.164;17.100;2023-03-21T17:18:35;22.40;62.40
40323;DHT22;26030;51.164;17.100;2023-03-21T17:23:39;22.30;62.00
40323;DHT22;26030;51.164;17.100;2023-03-21T17:28:43;22.40;61.50
40323;DHT22;26030;51.164;17.100;2023-03-21T17:33:49;22.50;61.30
40323;DHT22;26030;51.164;17.100;2023-03-21T17:38:53;22.50;61.50
40323;DHT22;26030;51.164;17.100;2023-03-21T17:43:59;22.60;61.00
40323;DHT22;26030;51.164;17.100;2023-03-21T17:49:04;22.70;60.40
40323;DHT22;26030;51.164;17.100;2023-03-21T17:54:10;22.60;61.00
40323;DHT22;26030;51.164;17.100;2023-03-21T17:59:15;22.60;60.70
40323;DHT22;26030;51.164;17.100;2023-03-21T18:04:22;22.50;61.00
40323;DHT22;26030;51.164;17.100;2023-03-21T18:09:27;22.70;60.80
40323;DHT22;26030;51.164;17.100;2023-03-21T18:14:34;22.60;60.80
40323;DHT22;26030;51.164;17.100;2023-03-21T18:19:46;22.40;60.50
40323;DHT22;26030;51.164;17.100;2023-03-21T18:24:53;22.30;60.70
40323;DHT22;26030;51.164;17.100;2023-03-21T18:30:01;22.30;60.50
40323;DHT22;26030;51.164;17.100;2023-03-21T18:35:34;22.30;61.10
40323;DHT22;26030;51.164;17.100;2023-03-21T18:40:40;22.30;60.40
40323;DHT22;26030;51.164;17.100;2023-03-21T18:45:46;22.20;60.70
40323;DHT22;26030;51.164;17.100;2023-03-21T18:51:00;22.20;60.10
40323;DHT22;26030;51.164;17.100;2023-03-21T18:56:06;22.20;59.80
40323;DHT22;26030;51.164;17.100;2023-03-21T19:01:14;22.30;59.20
40323;DHT22;26030;51.164;17.100;2023-03-21T19:06:22;22.40;58.80
40323;DHT22;26030;51.164;17.100;2023-03-21T19:11:27;22.40;58.90
40323;DHT22;26030;51.164;17.100;2023-03-21T19:16:33;22.30;59.00
40323;DHT22;26030;51.164;17.100;2023-03-21T19:22:04;22.30;59.30
40323;DHT22;26030;51.164;17.100;2023-03-21T19:27:11;22.30;59.50
40323;DHT22;26030;51.164;17.100;2023-03-21T19:32:18;22.30;59.40
40323;DHT22;26030;51.164;17.100;2023-03-21T19:37:27;22.30;59.70
40323;DHT22;26030;51.164;17.100;2023-03-21T19:42:36;22.20;59.50
40323;DHT22;26030;51.164;17.100;2023-03-21T19:47:40;22.30;60.00
40323;DHT22;26030;51.164;17.100;2023-03-21T19:52:48;22.20;60.30
40323;DHT22;26030;51.164;17.100;2023-03-21T19:57:55;22.10;60.90
40323;DHT22;26030;51.164;17.100;2023-03-21T20:03:03;22.10;60.00
40323;DHT22;26030;51.164;17.100;2023-03-21T20:08:12;22.10;60.00
40323;DHT22;26030;51.164;17.100;2023-03-21T20:13:21;22.00;59.50
40323;DHT22;26030;51.164;17.100;2023-03-21T20:18:29;22.00;59.60
40323;DHT22;26030;51.164;17.100;2023-03-21T20:23:39;22.00;59.90
40323;DHT22;26030;51.164;17.100;2023-03-21T20:28:51;22.00;60.30
40323;DHT22;26030;51.164;17.100;2023-03-21T20:34:25;22.00;60.30
40323;DHT22;26030;51.164;17.100;2023-03-21T20:39:33;22.00;60.90
40323;DHT22;26030;51.164;17.100;2023-03-21T20:44:39;22.00;61.20
40323;DHT22;26030;51.164;17.100;2023-03-21T20:50:04;22.10;60.80
40323;DHT22;26030;51.164;17.100;2023-03-21T20:55:14;22.00;60.70
40323;DHT22;26030;51.164;17.100;2023-03-21T21:00:20;22.10;62.60
40323;DHT22;26030;51.164;17.100;2023-03-21T21:05:26;22.00;62.40
40323;DHT22;26030;51.164;17.100;2023-03-21T21:10:38;22.00;61.30
40323;DHT22;26030;51.164;17.100;2023-03-21T21:16:05;22.00;60.90
40323;DHT22;26030;51.164;17.100;2023-03-21T21:21:11;22.10;60.80
40323;DHT22;26030;51.164;17.100;2023-03-21T21:26:16;22.10;61.10
40323;DHT22;26030;51.164;17.100;2023-03-21T21:31:20;22.00;61.70
40323;DHT22;26030;51.164;17.100;2023-03-21T21:36:24;22.10;61.60
40323;DHT22;26030;51.164;17.100;2023-03-21T21:41:29;22.10;61.30
40323;DHT22;26030;51.164;17.100;2023-03-21T21:46:33;21.90;61.30
40323;DHT22;26030;51.164;17.100;2023-03-21T21:51:37;21.90;61.60
40323;DHT22;26030;51.164;17.100;2023-03-21T21:56:43;22.00;62.30
40323;DHT22;26030;51.164;17.100;2023-03-21T22:01:51;22.10;62.00
40323;DHT22;26030;51.164;17.100;2023-03-21T22:06:55;22.00;61.90
40323;DHT22;26030;51.164;17.100;2023-03-21T22:11:59;22.00;61.90
40323;DHT22;26030;51.164;17.100;2023-03-21T22:17:03;22.00;61.70
40323;DHT22;26030;51.164;17.100;2023-03-21T22:22:07;22.00;61.70
40323;DHT22;26030;51.164;17.100;2023-03-21T22:27:11;22.00;61.90
40323;DHT22;26030;51.164;17.100;2023-03-21T22:32:15;22.00;61.60
40323;DHT22;26030;51.164;17.100;2023-03-21T22:37:19;22.00;61.50
40323;DHT22;26030;51.164;17.100;2023-03-21T22:42:23;22.00;61.60
40323;DHT22;26030;51.164;17.100;2023-03-21T22:47:27;22.00;61.60
40323;DHT22;26030;51.164;17.100;2023-03-21T22:52:31;22.00;62.30
40323;DHT22;26030;51.164;17.100;2023-03-21T22:57:36;21.80;66.00
40323;DHT22;26030;51.164;17.100;2023-03-21T23:02:40;21.90;66.70
40323;DHT22;26030;51.164;17.100;2023-03-21T23:07:44;22.00;67.60
40323;DHT22;26030;51.164;17.100;2023-03-21T23:12:48;22.10;65.40
40323;DHT22;26030;51.164;17.100;2023-03-21T23:17:54;22.20;66.30
40323;DHT22;26030;51.164;17.100;2023-03-21T23:22:58;22.30;66.80
40323;DHT22;26030;51.164;17.100;2023-03-21T23:28:02;22.30;66.50
40323;DHT22;26030;51.164;17.100;2023-03-21T23:33:09;22.30;66.00
40323;DHT22;26030;51.164;17.100;2023-03-21T23:38:14;22.30;65.20
40323;DHT22;26030;51.164;17.100;2023-03-21T23:43:18;22.30;65.60
40323;DHT22;26030;51.164;17.100;2023-03-21T23:48:22;22.30;65.10
40323;DHT22;26030;51.164;17.100;2023-03-21T23:53:27;22.30;66.00
40323;DHT22;26030;51.164;17.100;2023-03-21T23:58:31;22.30;64.80
